createdAt,value
2018-10-07T00:03:27.344Z,18.12
2018-10-07T00:08:20.116Z,18.12
2018-10-07T00:13:12.776Z,18.05
2018-10-07T00:18:05.614Z,18.03
2018-10-07T00:22:58.274Z,17.94
2018-10-07T00:27:50.898Z,17.87
2018-10-07T00:32:43.601Z,17.84
2018-10-07T00:37:36.391Z,17.78
2018-10-07T00:42:29.091Z,17.67
2018-10-07T00:47:21.789Z,17.56
2018-10-07T00:52:14.437Z,17.47
2018-10-07T00:57:07.111Z,17.44
2018-10-07T01:01:59.880Z,17.40
2018-10-07T01:06:52.707Z,17.32
2018-10-07T01:11:45.499Z,17.23
2018-10-07T01:16:38.166Z,17.19
2018-10-07T01:21:30.871Z,17.16
2018-10-07T01:26:23.515Z,17.13
2018-10-07T01:31:16.173Z,17.11
2018-10-07T01:36:08.756Z,17.09
2018-10-07T01:41:01.472Z,17.02
2018-10-07T01:45:54.160Z,17.01
2018-10-07T01:50:46.910Z,16.98
2018-10-07T01:55:39.689Z,16.94
2018-10-07T02:00:32.332Z,16.85
2018-10-07T02:05:25.239Z,16.79
2018-10-07T02:10:17.966Z,16.71
2018-10-07T02:15:10.747Z,16.65
2018-10-07T02:20:03.616Z,16.60
2018-10-07T02:24:56.290Z,16.51
2018-10-07T02:29:49.034Z,16.43
2018-10-07T02:34:41.704Z,16.34
2018-10-07T02:39:34.478Z,16.31
2018-10-07T02:44:27.205Z,16.27
2018-10-07T02:49:20.019Z,16.27
2018-10-07T02:54:12.740Z,16.30
2018-10-07T02:59:06.520Z,16.33
2018-10-07T03:03:59.183Z,16.30
2018-10-07T03:08:51.987Z,16.26
2018-10-07T03:13:44.710Z,16.22
2018-10-07T03:18:37.371Z,16.17
2018-10-07T03:23:30.026Z,16.12
2018-10-07T03:28:22.721Z,16.06
2018-10-07T03:33:15.379Z,16.06
2018-10-07T03:38:08.022Z,16.00
2018-10-07T03:43:00.746Z,15.93
2018-10-07T03:47:53.410Z,15.90
2018-10-07T03:52:46.067Z,15.90
2018-10-07T03:57:38.702Z,15.91
2018-10-07T04:02:31.453Z,15.91
2018-10-07T04:07:24.098Z,15.91
2018-10-07T04:12:16.783Z,15.91
2018-10-07T04:17:09.486Z,15.91
2018-10-07T04:22:02.171Z,15.93
2018-10-07T04:26:54.953Z,15.92
2018-10-07T04:31:47.921Z,15.87
2018-10-07T04:36:40.890Z,15.81
2018-10-07T04:41:33.573Z,15.78
2018-10-07T04:46:26.372Z,15.77
2018-10-07T04:51:19.078Z,15.73
2018-10-07T04:56:11.822Z,15.73
2018-10-07T05:01:04.578Z,15.70
2018-10-07T05:05:57.502Z,15.68
2018-10-07T05:10:52.396Z,15.69
2018-10-07T05:15:47.759Z,15.66
2018-10-07T05:20:40.648Z,15.62
2018-10-07T05:25:33.512Z,15.55
2018-10-07T05:30:26.178Z,15.50
2018-10-07T05:35:18.852Z,15.48
2018-10-07T05:40:11.481Z,15.48
2018-10-07T05:45:04.516Z,15.49
2018-10-07T05:49:57.294Z,15.51
2018-10-07T05:54:50.005Z,15.55
2018-10-07T05:59:42.693Z,15.58
2018-10-07T06:04:45.939Z,15.62
2018-10-07T06:09:38.752Z,15.66
2018-10-07T06:14:48.922Z,15.65
2018-10-07T06:19:41.605Z,15.68
2018-10-07T06:24:35.075Z,15.68
2018-10-07T06:29:27.827Z,15.71
2018-10-07T06:34:20.545Z,15.72
2018-10-07T06:39:13.346Z,15.74
2018-10-07T06:44:06.073Z,15.77
2018-10-07T06:48:58.824Z,15.78
2018-10-07T06:53:51.486Z,15.78
2018-10-07T06:58:44.166Z,15.82
2018-10-07T07:03:36.940Z,15.81
2018-10-07T07:08:29.646Z,15.80
2018-10-07T07:13:22.364Z,15.80
2018-10-07T07:18:15.050Z,15.79
2018-10-07T07:23:07.749Z,15.81
2018-10-07T07:28:00.446Z,15.79
2018-10-07T07:32:53.111Z,15.76
2018-10-07T07:37:45.813Z,15.70
2018-10-07T07:42:38.440Z,15.64
2018-10-07T07:47:31.195Z,15.53
2018-10-07T07:52:23.974Z,15.46
2018-10-07T07:57:16.621Z,15.42
2018-10-07T08:02:09.425Z,15.43
2018-10-07T08:07:02.144Z,15.42
2018-10-07T08:11:54.827Z,15.41
2018-10-07T08:16:47.486Z,15.37
2018-10-07T08:21:40.195Z,15.31
2018-10-07T08:26:32.898Z,15.25
2018-10-07T08:31:25.549Z,15.20
2018-10-07T08:36:18.327Z,15.16
2018-10-07T08:41:11.083Z,15.13
2018-10-07T08:46:03.799Z,15.10
2018-10-07T08:50:56.423Z,15.10
2018-10-07T08:55:49.123Z,15.05
2018-10-07T09:00:41.830Z,15.01
2018-10-07T09:05:34.546Z,14.98
2018-10-07T09:10:27.178Z,15.01
2018-10-07T09:15:19.834Z,15.04
2018-10-07T09:20:12.599Z,15.04
2018-10-07T09:25:05.263Z,15.05
2018-10-07T09:29:57.891Z,15.00
2018-10-07T09:34:50.586Z,14.93
2018-10-07T09:39:43.320Z,14.89
2018-10-07T09:44:35.865Z,14.82
2018-10-07T09:49:28.603Z,14.76
2018-10-07T09:54:21.254Z,14.75
2018-10-07T09:59:13.981Z,14.75
2018-10-07T10:04:06.832Z,14.71
2018-10-07T10:08:59.558Z,14.68
2018-10-07T10:13:52.222Z,14.63
2018-10-07T10:18:50.110Z,14.58
2018-10-07T10:26:07.701Z,14.57
2018-10-07T10:31:07.788Z,14.55
2018-10-07T10:37:12.278Z,14.56
2018-10-07T10:42:14.006Z,14.53
2018-10-07T10:47:15.596Z,14.53
2018-10-07T10:52:21.338Z,14.53
2018-10-07T10:57:24.347Z,14.56
2018-10-07T11:02:29.575Z,14.59
2018-10-07T11:08:36.059Z,14.61
2018-10-07T11:14:13.143Z,14.63
2018-10-07T11:20:22.619Z,14.65
2018-10-07T11:26:36.283Z,14.66
2018-10-07T11:32:45.813Z,14.74
2018-10-07T11:37:57.864Z,14.80
2018-10-07T11:42:58.139Z,14.81
2018-10-07T11:48:06.318Z,14.80
2018-10-07T11:53:20.770Z,14.81
2018-10-07T11:58:13.442Z,14.84
2018-10-07T12:03:06.233Z,14.86
2018-10-07T12:07:58.863Z,14.82
2018-10-07T12:12:51.524Z,14.79
2018-10-07T12:17:44.211Z,14.78
2018-10-07T12:22:36.933Z,14.74
2018-10-07T12:27:29.710Z,14.76
2018-10-07T12:32:22.371Z,14.78
2018-10-07T12:37:14.997Z,14.84
2018-10-07T12:42:07.648Z,14.92
2018-10-07T12:47:00.299Z,15.05
2018-10-07T12:51:53.100Z,15.15
2018-10-07T12:56:45.747Z,15.30
2018-10-07T13:01:38.410Z,15.46
2018-10-07T13:06:31.116Z,15.64
2018-10-07T13:11:24.695Z,15.70
2018-10-07T13:16:17.533Z,15.69
2018-10-07T13:21:10.198Z,15.67
2018-10-07T13:26:02.850Z,15.67
2018-10-07T13:30:55.482Z,15.75
2018-10-07T13:35:48.060Z,15.75
2018-10-07T13:40:40.656Z,15.72
2018-10-07T13:45:33.261Z,15.70
2018-10-07T13:50:25.938Z,15.71
2018-10-07T13:55:18.701Z,15.74
2018-10-07T14:00:11.491Z,15.83
2018-10-07T14:05:04.238Z,15.85
2018-10-07T14:09:56.915Z,15.91
2018-10-07T14:14:49.769Z,15.96
2018-10-07T14:19:42.374Z,15.96
2018-10-07T14:24:35.010Z,15.95
2018-10-07T14:29:27.663Z,15.91
2018-10-07T14:34:20.267Z,15.87
2018-10-07T14:39:13.409Z,15.82
2018-10-07T14:44:06.275Z,15.79
2018-10-07T14:48:59.040Z,15.78
2018-10-07T14:53:51.757Z,15.79
2018-10-07T14:58:44.417Z,15.78
2018-10-07T15:03:37.122Z,15.80
2018-10-07T15:08:29.767Z,15.80
2018-10-07T15:13:22.518Z,15.79
2018-10-07T15:18:15.132Z,15.75
2018-10-07T15:23:07.762Z,15.73
2018-10-07T15:28:00.462Z,15.69
2018-10-07T15:32:53.984Z,15.67
2018-10-07T15:37:46.747Z,15.63
2018-10-07T15:42:39.421Z,15.61
2018-10-07T15:47:32.249Z,15.55
2018-10-07T15:52:25.007Z,15.52
2018-10-07T15:57:17.723Z,15.46
2018-10-07T16:02:10.841Z,15.41
2018-10-07T16:07:04.152Z,15.38
2018-10-07T16:11:56.873Z,15.33
2018-10-07T16:16:49.596Z,15.29
2018-10-07T16:21:42.232Z,15.21
2018-10-07T16:26:35.158Z,15.12
2018-10-07T16:31:27.905Z,14.98
2018-10-07T16:36:20.530Z,14.90
2018-10-07T16:41:13.153Z,14.79
2018-10-07T16:46:06.340Z,14.70
2018-10-07T16:50:59.195Z,14.60
2018-10-07T16:55:51.821Z,14.51
2018-10-07T17:00:44.519Z,14.43
2018-10-07T17:05:37.242Z,14.36
2018-10-07T17:10:29.888Z,14.29
2018-10-07T17:15:22.745Z,14.18
2018-10-07T17:20:15.387Z,14.06
2018-10-07T17:25:08.063Z,13.94
2018-10-07T17:30:00.671Z,13.83
2018-10-07T17:34:53.532Z,13.77
2018-10-07T17:39:46.236Z,13.71
2018-10-07T17:44:38.795Z,13.61
2018-10-07T17:49:31.418Z,13.51
2018-10-07T17:54:24.056Z,13.43
2018-10-07T17:59:16.816Z,13.34
2018-10-07T18:04:09.546Z,13.29
2018-10-07T18:09:02.261Z,13.23
2018-10-07T18:13:54.923Z,13.13
2018-10-07T18:18:47.571Z,13.05
2018-10-07T18:23:40.362Z,13.02
2018-10-07T18:28:33.120Z,12.96
2018-10-07T18:33:25.818Z,12.91
2018-10-07T18:38:18.597Z,12.86
2018-10-07T18:43:11.480Z,12.82
2018-10-07T18:48:04.102Z,12.77
2018-10-07T18:52:56.840Z,12.69
2018-10-07T18:57:49.659Z,12.61
2018-10-07T19:02:42.328Z,12.53
2018-10-07T19:07:35.014Z,12.49
2018-10-07T19:12:27.726Z,12.40
2018-10-07T19:17:20.699Z,12.30
2018-10-07T19:22:13.418Z,12.23
2018-10-07T19:27:06.202Z,12.14
2018-10-07T19:31:58.874Z,12.02
2018-10-07T19:36:51.808Z,11.93
2018-10-07T19:41:44.394Z,11.88
2018-10-07T19:46:37.275Z,11.84
2018-10-07T19:51:29.937Z,11.77
2018-10-07T19:56:22.714Z,11.68
2018-10-07T20:01:15.381Z,11.59
2018-10-07T20:06:08.043Z,11.55
2018-10-07T20:11:00.745Z,11.50
2018-10-07T20:15:53.390Z,11.43
2018-10-07T20:20:45.996Z,11.37
2018-10-07T20:25:38.622Z,11.31
2018-10-07T20:30:31.280Z,11.25
2018-10-07T20:35:24.035Z,11.18
2018-10-07T20:40:16.750Z,11.09
2018-10-07T20:45:09.462Z,11.06
2018-10-07T20:50:02.143Z,11.00
2018-10-07T20:54:54.783Z,10.85
2018-10-07T20:59:47.478Z,10.77
2018-10-07T21:04:40.154Z,10.71
2018-10-07T21:09:32.807Z,10.67
2018-10-07T21:14:25.644Z,10.60
2018-10-07T21:19:18.265Z,10.59
2018-10-07T21:24:10.965Z,10.54
2018-10-07T21:29:03.607Z,10.50
2018-10-07T21:33:56.226Z,10.42
2018-10-07T21:38:48.973Z,10.40
2018-10-07T21:43:41.666Z,10.40
2018-10-07T21:48:34.276Z,10.36
2018-10-07T21:53:26.967Z,10.30
2018-10-07T21:58:19.655Z,10.22
2018-10-07T22:03:12.293Z,10.17
2018-10-07T22:08:04.983Z,10.13
2018-10-07T22:12:57.582Z,10.06
2018-10-07T22:17:50.158Z,10.01
2018-10-07T22:22:42.919Z,9.98
2018-10-07T22:27:35.779Z,9.97
2018-10-07T22:32:28.464Z,9.92
2018-10-07T22:37:21.470Z,9.84
2018-10-07T22:42:14.138Z,9.73
2018-10-07T22:47:06.938Z,9.64
2018-10-07T22:51:59.562Z,9.56
2018-10-07T22:56:52.283Z,9.50
2018-10-07T23:01:45.024Z,9.47
2018-10-07T23:06:37.693Z,9.38
2018-10-07T23:11:30.455Z,9.34
2018-10-07T23:16:23.147Z,9.30
2018-10-07T23:21:15.799Z,9.25
2018-10-07T23:26:08.495Z,9.13
2018-10-07T23:31:01.223Z,9.08
2018-10-07T23:35:53.925Z,9.03
2018-10-07T23:40:48.091Z,8.97
2018-10-07T23:45:40.830Z,8.95
2018-10-07T23:50:33.479Z,8.92
2018-10-07T23:55:26.118Z,8.90
